Terminal Aerodrome Forecast
Issued by NWS Newport/Morehead City, NC

Home | Current Version | Previous Version | Text Only | Print | Product List | Glossary On
Versions: 1 2 3 4 5 6 7 8 9 10 11 12 13 14
573
FTUS42 KMHX 092328
TAFEWN
TAF
KEWN 092328Z 1000/1024 26009G16KT P6SM VCSH SCT040 OVC070
     FM100700 27006KT P6SM SKC
     FM101400 27011G19KT P6SM BKN045=

USA.gov is the U.S. government's official web portal to all federal, state and local government web resources and services.